Main page
METAR-TAF:

Airports :

Christchurch, New Zealand

Christchurch International Airport

latitude: 43-29S, longitude: 172-33E, elevation: 38 m

Current weather observation

The report was made 32 minutes ago, at 09:00 UTC
Wind 6 kt from the East
Temperature 9°C
Humidity 53%
Pressure 1001 hPa
Visibility 10 km or more

METAR: NZCH 270900Z AUTO 09006KT 9999 NCD 09/00 Q1001 NOSIG

Time: 21:32 (09:32 UTC)

Forecast

The report was made 4 hours and 18 minutes ago, at 05:14 UTC
Forecast valid from 27 at 06 UTC to 28 at 06 UTC
Wind 15 kt from the North/Northwest
Visibility 10 km or more
no clouds below 1500 m and no cumulonimbus
Becoming
from 27 at 06 UTC to 27 at 08 UTC
Wind 15 kt from the Northeast
Becoming
from 27 at 16 UTC to 27 at 18 UTC
Wind 8 kt from the Northwest

TAF: NZCH 270514Z 2706/2806 34015KT CAVOK BECMG 2706/2708 04015KT BECMG 2716/2718 31008KT

METAR-TAF

Weather observations and forecasts of more than 4000 airports (METAR and TAF reports).

The available stations are represented by yellow and red dots on the map.

Hover mouse over dot to see the name of the station.

Then click to see weather observations and forecasts.

To change the map : click on the green buttons with a black cross to zoom in, on the green button with a dash to zoom out, or on the green arrows for adjacent maps.


METAR-TAF: